Time;durP1;ratioP1;P1;durP2;ratioP2;P2;SDS_P1;SDS_P2;PMS_P1;PMS_P2;Temp;Humidity;BMP_temperature;BMP_pressure;BME280_temperature;BME280_humidity;BME280_pressure;Samples;Min_cycle;Max_cycle;Signal;HPM_P1;HPM_P2
2022/07/26 00:02:06;;;;;;;1999.90;999.90;;;19.00;99.90;;;;;;5022379;28;20026;-75
2022/07/26 00:04:32;;;;;;;1999.90;999.90;;;19.00;99.90;;;;;;5036126;28;20025;-74
2022/07/26 00:06:57;;;;;;;1999.90;999.90;;;19.00;99.90;;;;;;5035875;28;20030;-75
2022/07/26 00:09:23;;;;;;;1999.90;999.90;;;19.00;99.90;;;;;;5036388;28;20029;-75
2022/07/26 00:11:49;;;;;;;1999.90;999.90;;;19.00;99.90;;;;;;5035402;28;20391;-75
2022/07/26 00:14:14;;;;;;;1999.90;999.90;;;19.00;99.90;;;;;;5035352;28;20017;-72
2022/07/26 00:16:40;;;;;;;1999.90;999.90;;;19.00;99.90;;;;;;5035988;28;20104;-73
2022/07/26 00:19:06;;;;;;;1999.90;999.90;;;19.00;99.90;;;;;;5035670;28;20124;-72
2022/07/26 00:21:35;;;;;;;1999.90;999.90;;;19.00;99.90;;;;;;5035727;28;20029;-75
2022/07/26 00:24:04;;;;;;;1999.90;999.90;;;19.00;99.90;;;;;;5035620;28;20029;-74
2022/07/26 00:26:30;;;;;;;1999.90;999.90;;;18.90;99.90;;;;;;5035511;28;20025;-75
2022/07/26 00:28:55;;;;;;;1999.90;999.90;;;18.90;99.90;;;;;;5035342;28;20049;-75
2022/07/26 00:31:21;;;;;;;1999.90;999.90;;;18.90;99.90;;;;;;5035503;28;20449;-72
2022/07/26 00:33:47;;;;;;;1999.90;999.90;;;18.90;99.90;;;;;;5035559;28;20060;-72
2022/07/26 00:36:12;;;;;;;1999.90;999.90;;;18.90;99.90;;;;;;5035823;28;20018;-75
2022/07/26 00:38:39;;;;;;;1999.90;999.90;;;19.00;99.90;;;;;;5035405;28;20033;-74
2022/07/26 00:41:05;;;;;;;1999.90;999.90;;;19.00;99.90;;;;;;5034052;28;20507;-75
2022/07/26 00:43:31;;;;;;;1999.90;999.90;;;19.00;99.90;;;;;;5035365;28;20057;-75
2022/07/26 00:45:57;;;;;;;1999.90;999.90;;;19.00;99.90;;;;;;5035261;28;20080;-73
2022/07/26 00:48:22;;;;;;;1999.90;999.90;;;19.00;99.90;;;;;;5035742;28;20084;-75
2022/07/26 00:50:48;;;;;;;1999.90;999.90;;;18.90;99.90;;;;;;5035203;28;20029;-75
2022/07/26 00:53:14;;;;;;;1999.90;999.90;;;18.90;99.90;;;;;;5035138;28;20089;-74
2022/07/26 00:55:40;;;;;;;1999.90;999.90;;;18.90;99.90;;;;;;5034833;28;20049;-74
2022/07/26 00:58:06;;;;;;;1999.90;999.90;;;18.80;99.90;;;;;;5028077;28;20109;-72
2022/07/26 01:00:31;;;;;;;1999.90;999.90;;;18.90;99.90;;;;;;5015450;28;20531;-72
2022/07/26 01:02:59;;;;;;;1999.90;999.90;;;18.80;99.90;;;;;;5028208;28;20030;-74
2022/07/26 01:05:25;;;;;;;1999.90;999.90;;;18.80;99.90;;;;;;5034898;28;20017;-74
2022/07/26 01:07:52;;;;;;;1999.90;999.90;;;18.80;99.90;;;;;;5034050;28;20404;-74
2022/07/26 01:10:18;;;;;;;1999.90;999.90;;;18.70;99.90;;;;;;5034804;28;20022;-72
2022/07/26 01:12:44;;;;;;;1999.90;999.90;;;18.70;99.90;;;;;;5034546;28;20028;-72
2022/07/26 01:15:11;;;;;;;1999.90;999.90;;;18.60;99.90;;;;;;5033904;28;20018;-72
2022/07/26 01:17:37;;;;;;;1999.90;999.90;;;18.60;99.90;;;;;;5034489;28;20032;-74
2022/07/26 01:20:05;;;;;;;1999.90;999.90;;;18.60;99.90;;;;;;5034501;28;20397;-72
2022/07/26 01:22:33;;;;;;;1999.90;999.90;;;18.70;99.90;;;;;;5033814;28;20017;-72
2022/07/26 01:24:59;;;;;;;1999.90;999.90;;;18.60;99.90;;;;;;5034310;28;20026;-72
2022/07/26 01:27:25;;;;;;;1999.90;999.90;;;18.60;99.90;;;;;;5034350;28;20056;-74
2022/07/26 01:29:51;;;;;;;1999.90;999.90;;;18.60;99.90;;;;;;5034642;28;20030;-74
2022/07/26 01:32:17;;;;;;;1999.90;999.90;;;18.60;99.90;;;;;;5033160;28;20036;-75
2022/07/26 01:34:43;;;;;;;1999.90;999.90;;;18.60;99.90;;;;;;5034182;28;20045;-74
2022/07/26 01:37:09;;;;;;;1999.90;999.90;;;18.60;99.90;;;;;;5034395;28;20068;-74
2022/07/26 01:39:35;;;;;;;1999.90;999.90;;;18.60;99.90;;;;;;5034220;28;20108;-72
2022/07/26 01:42:01;;;;;;;1999.90;999.90;;;18.60;99.90;;;;;;5034170;28;20519;-74
2022/07/26 01:44:27;;;;;;;1999.90;999.90;;;18.60;99.90;;;;;;5032909;28;20022;-74
2022/07/26 01:46:52;;;;;;;1999.90;999.90;;;18.60;99.90;;;;;;5034245;28;20033;-75
2022/07/26 01:49:18;;;;;;;1999.90;999.90;;;18.60;99.90;;;;;;5032810;28;20033;-72
2022/07/26 01:51:43;;;;;;;1999.90;999.90;;;18.50;99.90;;;;;;5034225;28;20079;-72
2022/07/26 01:54:09;;;;;;;1999.90;999.90;;;18.50;99.90;;;;;;5034166;28;20396;-72
2022/07/26 01:56:35;;;;;;;1999.90;999.90;;;18.50;99.90;;;;;;5033763;28;20105;-74
2022/07/26 01:59:02;;;;;;;1999.90;999.90;;;18.50;99.90;;;;;;5033777;28;20432;-72
2022/07/26 02:01:27;;;;;;;1999.90;999.90;;;18.50;99.90;;;;;;5033832;28;20026;-72
2022/07/26 02:03:53;;;;;;;1999.90;999.90;;;18.50;99.90;;;;;;5033988;28;20026;-72
2022/07/26 02:06:18;;;;;;;1999.90;999.90;;;18.50;99.90;;;;;;5033972;28;20029;-74
2022/07/26 02:08:44;;;;;;;1999.90;999.90;;;18.50;99.90;;;;;;5033588;28;20025;-74
2022/07/26 02:11:10;;;;;;;1999.90;999.90;;;18.50;99.90;;;;;;5033268;28;20065;-74
2022/07/26 02:13:40;;;;;;;1999.90;999.90;;;18.50;99.90;;;;;;5033789;28;20025;-75
2022/07/26 02:16:09;;;;;;;1999.90;999.90;;;18.50;99.90;;;;;;5032951;28;20049;-75
2022/07/26 02:18:36;;;;;;;1999.90;999.90;;;18.50;99.90;;;;;;5033533;28;20075;-74
2022/07/26 02:21:03;;;;;;;1999.90;999.90;;;18.50;99.90;;;;;;5033441;28;20069;-72
2022/07/26 02:23:29;;;;;;;1999.90;999.90;;;18.50;99.90;;;;;;5033561;28;20029;-74
2022/07/26 02:25:55;;;;;;;1999.90;999.90;;;18.50;99.90;;;;;;5033312;28;20083;-74
2022/07/26 02:28:21;;;;;;;1999.90;999.90;;;18.40;99.90;;;;;;5033159;28;20570;-73
2022/07/26 02:30:48;;;;;;;1999.90;999.90;;;18.40;99.90;;;;;;5033302;28;20075;-72
2022/07/26 02:33:14;;;;;;;1999.90;999.90;;;18.50;99.90;;;;;;5033446;28;20022;-72
2022/07/26 02:35:41;;;;;;;1999.90;999.90;;;18.40;99.90;;;;;;5033069;28;20439;-74
2022/07/26 02:38:09;;;;;;;1999.90;999.90;;;18.40;99.90;;;;;;5033456;28;20096;-72
2022/07/26 02:40:36;;;;;;;1999.90;999.90;;;18.40;99.90;;;;;;5033051;28;20377;-72
2022/07/26 02:43:03;;;;;;;1999.90;999.90;;;18.40;99.90;;;;;;5033436;28;20080;-74
2022/07/26 02:45:28;;;;;;;1999.90;999.90;;;18.40;99.90;;;;;;5033578;28;20021;-72
2022/07/26 02:47:54;;;;;;;1999.90;999.90;;;18.40;99.90;;;;;;5032390;28;20495;-74
2022/07/26 02:50:22;;;;;;;1999.90;999.90;;;18.40;99.90;;;;;;5031797;28;20116;-73
2022/07/26 02:52:49;;;;;;;1999.90;999.90;;;18.40;99.90;;;;;;5033061;28;20088;-74
2022/07/26 02:55:15;;;;;;;1999.90;999.90;;;18.40;99.90;;;;;;5033018;28;20033;-74
2022/07/26 02:57:41;;;;;;;1999.90;999.90;;;18.40;99.90;;;;;;5033123;28;20025;-72
2022/07/26 03:00:08;;;;;;;1999.90;999.90;;;18.30;99.90;;;;;;5032939;28;20025;-75
2022/07/26 03:02:34;;;;;;;1999.90;999.90;;;18.40;99.90;;;;;;5032911;28;20093;-72
2022/07/26 03:05:01;;;;;;;1999.90;999.90;;;18.30;99.90;;;;;;5032929;28;20022;-72
2022/07/26 03:07:27;;;;;;;1999.90;999.90;;;18.30;99.90;;;;;;5033124;28;20392;-72
2022/07/26 03:09:52;;;;;;;1999.90;999.90;;;18.30;99.90;;;;;;5032504;28;20519;-72
2022/07/26 03:12:18;;;;;;;1999.90;999.90;;;18.20;99.90;;;;;;5032709;28;20065;-74
2022/07/26 03:14:44;;;;;;;1999.90;999.90;;;18.20;99.90;;;;;;5031382;28;20120;-74
2022/07/26 03:17:09;;;;;;;1999.90;999.90;;;18.20;99.90;;;;;;5032129;28;20030;-75
2022/07/26 03:19:35;;;;;;;1999.90;999.90;;;18.20;99.90;;;;;;5032874;28;20079;-74
2022/07/26 03:22:00;;;;;;;1999.90;999.90;;;18.20;99.90;;;;;;5032757;28;20025;-74
2022/07/26 03:24:26;;;;;;;1999.90;999.90;;;18.20;99.90;;;;;;5030870;28;20447;-72
2022/07/26 03:26:52;;;;;;;1999.90;999.90;;;18.20;99.90;;;;;;5031046;28;20025;-75
2022/07/26 03:29:17;;;;;;;1999.90;999.90;;;18.20;99.90;;;;;;5032752;28;20041;-73
2022/07/26 03:31:43;;;;;;;1999.90;999.90;;;18.20;99.90;;;;;;5034761;28;20030;-74
2022/07/26 03:34:08;;;;;;;1999.90;999.90;;;18.20;99.90;;;;;;5036610;28;20485;-72
2022/07/26 03:36:34;;;;;;;1999.90;999.90;;;18.20;99.90;;;;;;5037050;28;20041;-72
2022/07/26 03:38:59;;;;;;;1999.90;999.90;;;18.20;99.90;;;;;;5036409;28;20085;-74
2022/07/26 03:41:25;;;;;;;1999.90;999.90;;;18.10;99.90;;;;;;5036405;28;20021;-74
2022/07/26 03:43:51;;;;;;;1999.90;999.90;;;18.10;99.90;;;;;;5036510;28;20100;-72
2022/07/26 03:46:16;;;;;;;1999.90;999.90;;;18.10;99.90;;;;;;5036546;28;20021;-72
2022/07/26 03:48:42;;;;;;;1999.90;999.90;;;18.10;99.90;;;;;;5036618;28;20071;-72
2022/07/26 03:51:08;;;;;;;1999.90;999.90;;;18.10;99.90;;;;;;5036492;28;20049;-72
2022/07/26 03:53:33;;;;;;;1999.90;999.90;;;18.10;99.90;;;;;;5036210;28;20527;-74
2022/07/26 03:58:43;;;;;;;1999.90;999.90;;;18.10;99.90;;;;;;5027868;28;20507;-72
2022/07/26 04:01:09;;;;;;;1999.90;999.90;;;18.00;99.90;;;;;;5016720;28;20029;-72
2022/07/26 04:03:35;;;;;;;1999.90;999.90;;;18.10;99.90;;;;;;5034420;28;20029;-74
2022/07/26 04:06:01;;;;;;;1999.90;999.90;;;18.00;99.90;;;;;;5036519;28;20028;-74
2022/07/26 04:08:26;;;;;;;1999.90;999.90;;;18.10;99.90;;;;;;5035744;28;20489;-75
2022/07/26 04:10:53;;;;;;;1999.90;999.90;;;18.00;99.90;;;;;;5035678;28;20030;-74
2022/07/26 04:13:19;;;;;;;1999.90;999.90;;;18.00;99.90;;;;;;5036038;28;20036;-72
2022/07/26 04:15:45;;;;;;;1999.90;999.90;;;18.00;99.90;;;;;;5035035;28;20484;-73
2022/07/26 04:18:12;;;;;;;1999.90;999.90;;;18.00;99.90;;;;;;5035141;28;20036;-74
2022/07/26 04:20:38;;;;;;;1999.90;999.90;;;17.90;99.90;;;;;;5035802;28;20029;-72
2022/07/26 04:23:04;;;;;;;1999.90;999.90;;;17.90;99.90;;;;;;5035619;28;20029;-72
2022/07/26 04:25:30;;;;;;;1999.90;999.90;;;17.80;99.90;;;;;;5034196;28;20028;-73
2022/07/26 04:27:56;;;;;;;1999.90;999.90;;;17.80;99.90;;;;;;5033262;28;20045;-72
2022/07/26 04:30:22;;;;;;;1999.90;999.90;;;17.80;99.90;;;;;;5034084;28;20037;-74
2022/07/26 04:32:47;;;;;;;1999.90;999.90;;;17.80;99.90;;;;;;5035616;28;20022;-72
2022/07/26 04:35:14;;;;;;;1999.90;999.90;;;17.80;99.90;;;;;;5035328;28;20029;-75
2022/07/26 04:37:41;;;;;;;1999.90;999.90;;;17.80;99.90;;;;;;5033773;28;20432;-72
2022/07/26 04:40:08;;;;;;;1999.90;999.90;;;17.80;99.90;;;;;;5034900;28;20061;-72
2022/07/26 04:42:35;;;;;;;1999.90;999.90;;;17.80;99.90;;;;;;5034120;28;20029;-74
2022/07/26 04:45:01;;;;;;;1999.90;999.90;;;17.90;99.90;;;;;;5035360;28;20083;-75
2022/07/26 04:47:27;;;;;;;1999.90;999.90;;;17.90;99.90;;;;;;5033721;28;20052;-74
2022/07/26 04:49:52;;;;;;;1999.90;999.90;;;17.90;99.90;;;;;;5033794;28;20061;-75
2022/07/26 04:52:18;;;;;;;1999.90;999.90;;;17.90;99.90;;;;;;5034896;28;20025;-74
2022/07/26 04:54:43;;;;;;;1999.90;999.90;;;18.00;99.90;;;;;;5035277;28;20370;-72
2022/07/26 04:57:09;;;;;;;1999.90;999.90;;;18.00;99.90;;;;;;5034834;28;20155;-75
2022/07/26 04:59:34;;;;;;;1999.90;999.90;;;18.00;99.90;;;;;;5032215;28;20425;-72
2022/07/26 05:02:00;;;;;;;1999.90;999.90;;;18.10;99.90;;;;;;5034710;28;20026;-72
2022/07/26 05:04:26;;;;;;;1999.90;999.90;;;18.00;99.90;;;;;;5034776;28;20030;-72
2022/07/26 05:06:51;;;;;;;1999.90;999.90;;;18.10;99.90;;;;;;5033693;28;20091;-72
2022/07/26 05:09:17;;;;;;;1999.90;999.90;;;18.10;99.90;;;;;;5033376;28;20025;-72
2022/07/26 05:11:43;;;;;;;1999.90;999.90;;;18.00;99.90;;;;;;5034323;28;20032;-72
2022/07/26 05:14:08;;;;;;;1999.90;999.90;;;18.10;99.90;;;;;;5034422;28;20061;-72
2022/07/26 05:16:34;;;;;;;1999.90;999.90;;;18.10;99.90;;;;;;5033986;28;20021;-72
2022/07/26 05:18:59;;;;;;;1999.90;999.90;;;18.10;99.90;;;;;;5033955;28;20025;-72
2022/07/26 05:21:26;;;;;;;1999.90;999.90;;;18.10;99.90;;;;;;5034203;28;20021;-74
2022/07/26 05:23:53;;;;;;;1999.90;999.90;;;18.10;99.90;;;;;;5034152;28;20030;-72
2022/07/26 05:26:19;;;;;;;1999.90;999.90;;;18.20;99.90;;;;;;5033709;28;20021;-72
2022/07/26 05:28:44;;;;;;;1999.90;999.90;;;18.10;99.90;;;;;;5033421;28;20515;-72
2022/07/26 05:31:10;;;;;;;1999.90;999.90;;;18.20;99.90;;;;;;5034507;28;20480;-72
2022/07/26 05:33:36;;;;;;;1999.90;999.90;;;18.30;99.90;;;;;;5034111;28;20033;-72
2022/07/26 05:36:01;;;;;;;1999.90;999.90;;;18.30;99.90;;;;;;5025824;28;20504;-74
2022/07/26 05:38:27;;;;;;;1999.90;999.90;;;18.30;99.90;;;;;;5056018;28;20029;-75
2022/07/26 05:40:53;;;;;;;1999.90;999.90;;;18.40;99.90;;;;;;5033594;28;20025;-75
2022/07/26 05:43:18;;;;;;;1999.90;999.90;;;18.30;99.90;;;;;;5033993;28;20037;-74
2022/07/26 05:45:44;;;;;;;1999.90;999.90;;;18.40;99.90;;;;;;5032746;28;20026;-72
2022/07/26 05:48:10;;;;;;;1999.90;999.90;;;18.40;99.90;;;;;;5033804;28;20029;-75
2022/07/26 05:50:35;;;;;;;1999.90;999.90;;;18.40;99.90;;;;;;5032201;28;20036;-71
2022/07/26 05:53:01;;;;;;;1999.90;999.90;;;18.40;99.90;;;;;;5033895;28;20480;-75
2022/07/26 05:55:27;;;;;;;1999.90;999.90;;;18.50;99.90;;;;;;5033307;28;20060;-72
2022/07/26 05:57:52;;;;;;;1999.90;999.90;;;18.50;99.90;;;;;;5034095;28;20026;-72
2022/07/26 06:00:19;;;;;;;1999.90;999.90;;;18.50;99.90;;;;;;5033571;28;20021;-74
2022/07/26 06:02:45;;;;;;;1999.90;999.90;;;18.60;99.90;;;;;;5031766;28;20116;-75
2022/07/26 06:05:10;;;;;;;1999.90;999.90;;;18.60;99.90;;;;;;5031922;28;20112;-72
2022/07/26 06:07:36;;;;;;;1999.90;999.90;;;18.60;99.90;;;;;;5033830;28;20437;-74
2022/07/26 06:10:03;;;;;;;1999.90;999.90;;;18.60;99.90;;;;;;5030087;28;20410;-72
2022/07/26 06:12:28;;;;;;;1999.90;999.90;;;18.60;99.90;;;;;;5031969;28;20469;-74
2022/07/26 06:14:54;;;;;;;1999.90;999.90;;;18.70;99.90;;;;;;5033006;28;20024;-72
2022/07/26 06:17:19;;;;;;;1999.90;999.90;;;18.70;99.90;;;;;;5032729;28;20029;-75
2022/07/26 06:19:45;;;;;;;1999.90;999.90;;;18.70;99.90;;;;;;5033295;28;20022;-75
2022/07/26 06:22:11;;;;;;;1999.90;999.90;;;18.80;99.90;;;;;;5031886;28;20029;-72
2022/07/26 06:24:36;;;;;;;1999.90;999.90;;;18.80;99.90;;;;;;5033358;28;20147;-72
2022/07/26 06:27:03;;;;;;;1999.90;999.90;;;18.80;99.90;;;;;;5027162;28;20409;-72
2022/07/26 06:29:29;;;;;;;1999.90;999.90;;;18.90;99.90;;;;;;5027319;28;20029;-72
2022/07/26 06:32:10;;;;;;;1999.90;999.90;;;18.90;99.90;;;;;;5013960;28;20049;-74
2022/07/26 06:34:35;;;;;;;1999.90;999.90;;;18.90;99.90;;;;;;5032230;28;20028;-72
2022/07/26 06:37:01;;;;;;;1999.90;999.90;;;19.00;99.90;;;;;;5042107;28;20035;-72
2022/07/26 06:39:26;;;;;;;1999.90;999.90;;;19.00;99.90;;;;;;5033178;28;20110;-74
2022/07/26 06:41:52;;;;;;;1999.90;999.90;;;19.10;99.90;;;;;;5032692;28;20064;-74
2022/07/26 06:44:18;;;;;;;1999.90;999.90;;;19.20;99.90;;;;;;5020856;28;20053;-75
2022/07/26 06:46:43;;;;;;;1999.90;999.90;;;19.40;99.90;;;;;;5018450;28;20044;-72
2022/07/26 06:49:09;;;;;;;1999.90;999.90;;;19.40;99.90;;;;;;5013162;28;20053;-72
2022/07/26 06:51:34;;;;;;;1999.90;999.90;;;19.50;99.90;;;;;;5023915;28;20496;-74
2022/07/26 06:54:00;;;;;;;1999.90;999.90;;;19.50;99.90;;;;;;5032130;28;20021;-72
2022/07/26 06:56:26;;;;;;;1999.90;999.90;;;19.60;99.90;;;;;;5032128;28;20036;-75
2022/07/26 06:58:54;;;;;;;1999.90;999.90;;;19.70;99.90;;;;;;5032054;28;20076;-75
2022/07/26 07:01:19;;;;;;;1999.90;999.90;;;19.80;99.90;;;;;;5022662;28;20500;-72
2022/07/26 07:03:46;;;;;;;1999.90;999.90;;;19.90;99.90;;;;;;5029804;28;20021;-72
2022/07/26 07:06:12;;;;;;;1999.90;999.90;;;19.90;99.90;;;;;;5028646;28;20033;-72
2022/07/26 07:08:37;;;;;;;1999.90;999.90;;;20.00;99.90;;;;;;5032282;28;20079;-75
2022/07/26 07:11:03;;;;;;;1999.90;999.90;;;20.10;99.90;;;;;;5031286;28;20029;-72
2022/07/26 07:13:29;;;;;;;1999.90;999.90;;;20.20;99.90;;;;;;5031959;28;20040;-74
2022/07/26 07:15:54;;;;;;;1999.90;999.90;;;20.20;99.90;;;;;;5030817;28;20021;-72
2022/07/26 07:18:20;;;;;;;1999.90;999.90;;;20.30;99.90;;;;;;5020568;28;20037;-72
2022/07/26 07:20:46;;;;;;;1999.90;999.90;;;20.30;99.90;;;;;;5025085;28;20025;-72
2022/07/26 07:23:11;;;;;;;1999.90;999.90;;;20.30;99.90;;;;;;5028123;28;20025;-74
2022/07/26 07:25:37;;;;;;;1999.90;999.90;;;20.30;99.90;;;;;;5028454;28;20499;-72
2022/07/26 07:28:03;;;;;;;1999.90;999.90;;;20.30;99.90;;;;;;5034548;28;20045;-72
2022/07/26 07:30:28;;;;;;;1999.90;999.90;;;20.50;99.90;;;;;;5035492;28;20026;-72
2022/07/26 07:32:54;;;;;;;1999.90;999.90;;;20.60;99.90;;;;;;5032360;28;20029;-72
2022/07/26 07:35:20;;;;;;;1999.90;999.90;;;20.80;99.90;;;;;;5032038;28;20018;-74
2022/07/26 07:37:46;;;;;;;1999.90;999.90;;;20.90;99.90;;;;;;5039309;28;20037;-74
2022/07/26 07:40:12;;;;;;;1999.90;999.90;;;21.10;99.90;;;;;;5015798;28;20103;-72
2022/07/26 07:42:38;;;;;;;1999.90;999.90;;;21.30;99.90;;;;;;5019996;28;20029;-72
2022/07/26 07:45:04;;;;;;;1999.90;999.90;;;21.40;99.90;;;;;;5019203;28;20109;-75
2022/07/26 07:47:33;;;;;;;1999.90;999.90;;;21.40;99.90;;;;;;5012561;28;20042;-74
2022/07/26 07:49:59;;;;;;;1999.90;999.90;;;21.40;99.90;;;;;;5017854;28;20087;-75
2022/07/26 07:52:24;;;;;;;1999.90;999.90;;;21.40;99.90;;;;;;5020439;28;20038;-72
2022/07/26 07:54:50;;;;;;;1999.90;999.90;;;21.30;99.90;;;;;;5017353;28;20113;-72
2022/07/26 07:57:16;;;;;;;1999.90;999.90;;;21.40;99.90;;;;;;5011548;28;20034;-72
2022/07/26 07:59:41;;;;;;;1999.90;999.90;;;21.60;99.90;;;;;;5034186;28;20377;-74
2022/07/26 08:02:08;;;;;;;1999.90;999.90;;;21.70;99.90;;;;;;5026688;28;20095;-72
2022/07/26 08:04:34;;;;;;;1999.90;999.90;;;21.80;99.90;;;;;;5020779;28;20087;-74
2022/07/26 08:06:59;;;;;;;1999.90;999.90;;;22.10;99.90;;;;;;5030967;28;20033;-72
2022/07/26 08:09:25;;;;;;;1999.90;999.90;;;22.30;99.90;;;;;;5018628;28;20064;-72
2022/07/26 08:11:51;;;;;;;1999.90;999.90;;;22.10;99.90;;;;;;5021913;28;20052;-75
2022/07/26 08:14:17;;;;;;;1999.90;999.90;;;22.20;99.90;;;;;;5024475;28;20018;-75
2022/07/26 08:16:43;;;;;;;1999.90;999.90;;;22.10;99.90;;;;;;5012661;28;20025;-75
2022/07/26 08:19:09;;;;;;;1999.90;999.90;;;22.20;99.90;;;;;;5020593;28;20029;-72
2022/07/26 08:21:35;;;;;;;1999.90;999.90;;;22.30;99.90;;;;;;5030648;28;20096;-72
2022/07/26 08:24:00;;;;;;;1999.90;999.90;;;22.30;99.90;;;;;;5015047;28;20536;-72
2022/07/26 08:26:26;;;;;;;1999.90;999.90;;;22.20;99.90;;;;;;5021596;28;20025;-72
2022/07/26 08:28:52;;;;;;;1999.90;999.90;;;21.80;99.90;;;;;;5019614;28;20081;-75
2022/07/26 08:31:19;;;;;;;1999.90;999.90;;;21.80;99.90;;;;;;5032185;28;20083;-74
2022/07/26 08:33:46;;;;;;;1999.90;999.90;;;21.90;99.90;;;;;;5033715;28;20037;-72
2022/07/26 08:36:12;;;;;;;1999.90;999.90;;;22.10;99.90;;;;;;5020664;28;20392;-72
2022/07/26 08:38:37;;;;;;;1999.90;999.90;;;22.20;99.90;;;;;;5026514;28;20025;-75
2022/07/26 08:41:03;;;;;;;1999.90;999.90;;;22.20;99.90;;;;;;5016415;28;20036;-72
2022/07/26 08:43:28;;;;;;;1999.90;999.90;;;22.20;99.90;;;;;;5020088;28;20033;-72
2022/07/26 08:46:01;;;;;;;1999.90;999.90;;;22.50;99.50;;;;;;5022619;28;20109;-72
2022/07/26 08:48:26;;;;;;;1999.90;999.90;;;22.60;99.90;;;;;;5025805;28;20030;-72
2022/07/26 08:50:54;;;;;;;1999.90;999.90;;;22.80;99.80;;;;;;5023847;28;20044;-75
2022/07/26 08:53:20;;;;;;;1999.90;999.90;;;23.10;99.20;;;;;;5017828;28;20474;-75
2022/07/26 08:55:46;;;;;;;1999.90;999.90;;;23.20;98.80;;;;;;5031096;28;20117;-75
2022/07/26 08:58:12;;;;;;;1999.90;999.90;;;23.10;98.40;;;;;;5032583;28;20022;-72
2022/07/26 09:00:37;;;;;;;1999.90;999.90;;;23.40;97.10;;;;;;5026196;28;20029;-72
2022/07/26 09:03:03;;;;;;;1999.90;999.90;;;23.10;96.10;;;;;;5021373;28;20037;-75
2022/07/26 09:05:35;;;;;;;1999.90;999.90;;;23.20;96.60;;;;;;5028157;28;20048;-74
2022/07/26 09:08:25;;;;;;;1999.90;999.90;;;23.00;96.70;;;;;;5015713;28;20026;-75
2022/07/26 09:10:51;;;;;;;1999.90;999.90;;;23.20;97.00;;;;;;5024467;28;20444;-72
2022/07/26 09:13:16;;;;;;;1999.90;999.90;;;25.30;95.70;;;;;;5022884;28;20025;-73
2022/07/26 09:15:42;;;;;;;1999.90;999.90;;;27.00;92.90;;;;;;5032408;28;20030;-75
2022/07/26 09:18:25;;;;;;;1999.90;999.90;;;26.90;92.60;;;;;;5027850;28;20396;-73
2022/07/26 09:20:51;;;;;;;1999.90;999.90;;;28.90;91.70;;;;;;5019950;28;20026;-75
2022/07/26 09:23:16;;;;;;;1999.90;999.90;;;30.10;88.20;;;;;;5031918;28;20106;-73
2022/07/26 09:25:44;;;;;;;1999.90;999.90;;;31.00;87.40;;;;;;5031874;28;20055;-71
2022/07/26 09:28:24;;;;;;;1999.90;999.90;;;32.50;84.60;;;;;;5022489;28;20045;-71
2022/07/26 09:30:57;;;;;;;1999.90;999.90;;;32.00;82.50;;;;;;5025566;28;20176;-71
2022/07/26 09:33:23;;;;;;;1999.90;999.90;;;32.60;80.40;;;;;;5013437;28;20109;-71
2022/07/26 09:36:05;;;;;;;1999.90;999.90;;;33.80;78.10;;;;;;5020096;28;20438;-75
2022/07/26 09:38:42;;;;;;;;;;;33.40;79.10;;;;;;5021950;28;20023;-71
2022/07/26 09:41:20;;;;;;;1999.90;999.90;;;32.20;80.70;;;;;;5020980;28;19909;-71
2022/07/26 09:43:46;;;;;;;1999.90;999.90;;;32.70;78.90;;;;;;5031255;28;20058;-74
2022/07/26 09:46:11;;;;;;;1999.90;999.90;;;33.70;77.00;;;;;;5032288;28;20488;-74
2022/07/26 09:48:40;;;;;;;1999.90;999.90;;;34.00;75.60;;;;;;5023469;28;20026;-75
2022/07/26 09:51:06;;;;;;;1999.90;999.90;;;33.40;76.20;;;;;;5026976;28;20484;-71
2022/07/26 09:53:40;;;;;;;1999.90;999.90;;;33.80;76.00;;;;;;5035240;28;20229;-74
2022/07/26 09:56:06;;;;;;;1999.90;999.90;;;33.50;76.40;;;;;;5032280;28;20115;-75
2022/07/26 09:58:32;;;;;;;1999.90;999.90;;;33.60;75.10;;;;;;5033674;28;20041;-71
2022/07/26 10:00:58;;;;;;;1999.90;999.90;;;33.60;74.80;;;;;;5029314;28;20100;-75
2022/07/26 10:03:23;;;;;;;1999.90;999.90;;;33.00;74.00;;;;;;5015551;28;20492;-71
2022/07/26 10:05:50;;;;;;;1999.90;999.90;;;31.00;75.00;;;;;;5026015;28;20108;-71
2022/07/26 10:08:17;;;;;;;1999.90;999.90;;;32.40;74.60;;;;;;5017679;28;20033;-75
2022/07/26 10:10:54;;;;;;;1999.90;999.90;;;33.20;73.30;;;;;;5036945;28;20030;-74
2022/07/26 10:13:21;;;;;;;1999.90;999.90;;;32.60;73.10;;;;;;5024487;28;20049;-74
2022/07/26 10:15:50;;;;;;;1999.90;999.90;;;32.70;73.10;;;;;;5032643;28;20035;-70
2022/07/26 10:18:42;;;;;;;1999.90;999.90;;;31.40;74.50;;;;;;5040050;28;20029;-71
2022/07/26 10:21:30;;;;;;;1999.90;999.90;;;31.80;74.40;;;;;;5038170;28;20072;-74
2022/07/26 10:24:01;;;;;;;1999.90;999.90;;;32.60;73.60;;;;;;5041269;28;20029;-75
2022/07/26 10:26:33;;;;;;;1999.90;999.90;;;33.80;72.30;;;;;;5035037;28;20021;-74
2022/07/26 10:29:24;;;;;;;1999.90;999.90;;;33.90;73.30;;;;;;5032281;28;20053;-71
2022/07/26 10:32:14;;;;;;;1999.90;999.90;;;33.20;71.90;;;;;;5032893;28;20025;-71
2022/07/26 10:34:40;;;;;;;1999.90;999.90;;;33.20;71.40;;;;;;5023715;28;20029;-75
2022/07/26 10:37:18;;;;;;;1999.90;999.90;;;33.60;72.00;;;;;;5039018;28;20025;-75
2022/07/26 10:39:44;;;;;;;1999.90;999.90;;;33.90;70.90;;;;;;5021126;28;20026;-76
2022/07/26 10:42:10;;;;;;;1999.90;999.90;;;32.80;70.80;;;;;;5012846;28;20132;-71
2022/07/26 10:44:44;;;;;;;1999.90;999.90;;;32.40;72.40;;;;;;5029196;28;20021;-75
2022/07/26 10:47:11;;;;;;;1999.90;999.90;;;32.20;72.60;;;;;;5027908;28;20477;-71
2022/07/26 10:49:55;;;;;;;1999.90;999.90;;;32.30;72.90;;;;;;5024956;28;20080;-71
2022/07/26 10:52:24;;;;;;;1999.90;999.90;;;32.70;72.70;;;;;;5015736;28;20044;-75
2022/07/26 10:54:59;;;;;;;1999.90;999.90;;;33.00;72.40;;;;;;5028375;28;20025;-71
2022/07/26 10:57:29;;;;;;;1999.90;999.90;;;29.70;75.50;;;;;;5016974;28;20056;-73
2022/07/26 10:59:56;;;;;;;1999.90;999.90;;;29.90;76.80;;;;;;5029533;28;20068;-75
2022/07/26 11:02:27;;;;;;;1999.90;999.90;;;31.20;77.60;;;;;;5019872;28;20144;-75
2022/07/26 11:05:00;;;;;;;1999.90;999.90;;;31.00;78.80;;;;;;5028801;28;20076;-78
2022/07/26 11:07:26;;;;;;;1999.90;999.90;;;28.30;83.00;;;;;;5024794;28;20091;-76
2022/07/26 11:09:59;;;;;;;1999.90;999.90;;;27.50;86.20;;;;;;5018064;28;20045;-77
2022/07/26 11:12:25;;;;;;;1999.90;999.90;;;27.60;87.00;;;;;;5019484;28;20022;-73
2022/07/26 11:14:53;;;;;;;1999.90;999.90;;;27.60;87.90;;;;;;5012217;28;20037;-76
2022/07/26 11:17:26;;;;;;;1999.90;999.90;;;26.90;90.50;;;;;;5036686;28;20489;-76
2022/07/26 11:19:52;;;;;;;1999.90;999.90;;;27.10;89.10;;;;;;5026351;28;20105;-77
2022/07/26 11:22:19;;;;;;;1999.90;999.90;;;27.20;88.80;;;;;;5025669;28;20053;-77
2022/07/26 11:24:44;;;;;;;1999.90;999.90;;;27.10;88.60;;;;;;5019300;28;20095;-73
2022/07/26 11:27:10;;;;;;;1999.90;999.90;;;28.00;87.80;;;;;;5019283;28;20042;-75
2022/07/26 11:29:37;;;;;;;1999.90;999.90;;;27.80;88.10;;;;;;5030707;28;20045;-76
2022/07/26 11:32:03;;;;;;;1999.90;999.90;;;27.30;88.60;;;;;;5016518;28;20113;-73
2022/07/26 11:34:34;;;;;;;1999.90;999.90;;;26.30;90.10;;;;;;5014278;28;20100;-73
2022/07/26 11:37:03;;;;;;;1999.90;999.90;;;26.50;90.40;;;;;;5028171;28;20370;-73
2022/07/26 11:39:32;;;;;;;1999.90;999.90;;;26.70;89.40;;;;;;5017779;28;20068;-72
2022/07/26 11:42:06;;;;;;;1999.90;999.90;;;26.80;88.70;;;;;;5014953;28;20026;-76
2022/07/26 11:44:32;;;;;;;1999.90;999.90;;;26.50;88.70;;;;;;5014839;28;20034;-78
2022/07/26 11:46:59;;;;;;;1999.90;999.90;;;26.50;88.90;;;;;;5031398;28;20025;-77
2022/07/26 11:49:27;;;;;;;1999.90;999.90;;;26.60;89.50;;;;;;5032784;28;20029;-72
2022/07/26 11:51:54;;;;;;;1999.90;999.90;;;26.70;89.30;;;;;;5033257;28;20063;-77
2022/07/26 11:54:21;;;;;;;1999.90;999.90;;;25.80;89.60;;;;;;5035041;28;20072;-77
2022/07/26 11:57:05;;;;;;;1999.90;999.90;;;25.10;90.50;;;;;;5036064;28;20485;-76
2022/07/26 11:59:36;;;;;;;1999.90;999.90;;;24.70;90.70;;;;;;5033556;28;20034;-76
2022/07/26 12:02:04;;;;;;;1999.90;999.90;;;25.00;90.80;;;;;;5034550;28;20500;-73